aviador You're here:

FBMN Decoded Metar

MAUN in BOTSWANA
Report Time2017-12-11 09:00:00
UTC Time2017-12-11 09:18:07
Flight Rules vfr VFR
Wind320° at 04 kt
W.Decomp.*RWY 26: 1.4 kt HW 3.8 kt RCW
W.Rank320° ranks 21
Current wind is below 320° avg. (5.0)
Visibility9999 m
Phenomena:N/A
Clouds:Few 030 Hf
Expected CloudBase > 4,400 ft AGL from Temp-Dew spread
CeilingNone
Temp30°C (ISA +21)
Dew Point19°C (52% RH)
Heat Index31.4°C
QNH1016 hPa
Density Alt5,528 ft
Elevation2,953 ft
Report Wrong Elevation
Raw Report
FBMN 110900Z 32004KT 9999 FEW030 30/19 Q1016=

Extra information for FBMN:More info

Metar Taf Metar & Taf Last 4 Metars F.Rules Stats Wind Profile Meteogram Temp Stats Airport Information Weather charts Add Link Nearby VenuesMetar ALERT Operation Metar Decoded Social comments